Time;durP1;ratioP1;P1;durP2;ratioP2;P2;SDS_P1;SDS_P2;PMS_P1;PMS_P2;Temp;Humidity;BMP_temperature;BMP_pressure;BME280_temperature;BME280_humidity;BME280_pressure;Samples;Min_cycle;Max_cycle;Signal;HPM_P1;HPM_P2
2024/01/06 00:01:39;;;;;;;5.07;0.77;;;;;;;;;;4980396;28;20431;-53
2024/01/06 00:04:07;;;;;;;4.88;0.75;;;;;;;;;;4972413;28;20137;-51
2024/01/06 00:06:37;;;;;;;5.20;1.00;;;;;;;;;;4980087;28;20721;-48
2024/01/06 00:09:04;;;;;;;4.43;0.87;;;;;;;;;;4973045;28;20046;-50
2024/01/06 00:11:32;;;;;;;5.15;0.60;;;;;;;;;;4976724;28;20037;-50
2024/01/06 00:14:00;;;;;;;4.60;0.70;;;;;;;;;;4968675;28;20042;-51
2024/01/06 00:16:28;;;;;;;2.55;0.30;;;;;;;;;;4972381;28;20047;-51
2024/01/06 00:18:56;;;;;;;5.90;0.57;;;;;;;;;;4966591;28;20045;-51
2024/01/06 00:21:24;;;;;;;5.17;0.50;;;;;;;;;;4955918;28;20049;-51
2024/01/06 00:23:55;;;;;;;4.50;0.70;;;;;;;;;;4974725;28;20125;-48
2024/01/06 00:26:24;;;;;;;4.75;0.70;;;;;;;;;;4974672;28;20376;-50
2024/01/06 00:28:52;;;;;;;7.43;0.77;;;;;;;;;;4986212;28;20042;-52
2024/01/06 00:31:21;;;;;;;4.97;0.65;;;;;;;;;;4981173;28;20042;-52
2024/01/06 00:33:51;;;;;;;4.70;0.80;;;;;;;;;;4829623;28;20410;-52
2024/01/06 00:36:19;;;;;;;4.55;0.65;;;;;;;;;;4976912;28;20442;-49
2024/01/06 00:38:47;;;;;;;4.53;0.52;;;;;;;;;;4989876;28;20507;-50
2024/01/06 00:41:16;;;;;;;5.32;0.70;;;;;;;;;;4984554;28;20046;-50
2024/01/06 00:43:44;;;;;;;5.50;0.70;;;;;;;;;;4979753;28;20049;-50
2024/01/06 00:46:12;;;;;;;5.00;0.67;;;;;;;;;;4975450;28;20058;-47
2024/01/06 00:48:40;;;;;;;4.70;0.73;;;;;;;;;;4984562;28;20045;-50
2024/01/06 00:51:08;;;;;;;4.47;0.80;;;;;;;;;;4974407;28;20050;-50
2024/01/06 00:53:36;;;;;;;5.75;0.63;;;;;;;;;;4982915;28;20060;-52
2024/01/06 00:56:04;;;;;;;6.55;1.00;;;;;;;;;;4973440;28;20130;-48
2024/01/06 00:58:33;;;;;;;6.97;0.60;;;;;;;;;;4984885;28;20335;-49
2024/01/06 01:01:01;;;;;;;6.32;0.63;;;;;;;;;;4974108;28;20046;-48
2024/01/06 01:03:28;;;;;;;3.85;0.50;;;;;;;;;;4986190;28;20065;-49
2024/01/06 01:05:56;;;;;;;3.40;0.50;;;;;;;;;;4968453;28;20270;-54
2024/01/06 01:08:24;;;;;;;4.00;0.82;;;;;;;;;;4985157;28;20131;-49
2024/01/06 01:10:52;;;;;;;6.20;0.60;;;;;;;;;;4979726;28;20782;-49
2024/01/06 01:13:19;;;;;;;7.45;0.70;;;;;;;;;;4986338;28;20054;-52
2024/01/06 01:15:49;;;;;;;4.28;0.93;;;;;;;;;;4979527;28;20057;-48
2024/01/06 01:18:17;;;;;;;4.75;0.40;;;;;;;;;;4988898;28;20041;-51
2024/01/06 01:20:45;;;;;;;3.80;0.60;;;;;;;;;;4981692;28;20104;-53
2024/01/06 01:23:13;;;;;;;6.67;0.60;;;;;;;;;;4982781;28;20050;-50
2024/01/06 01:25:41;;;;;;;6.88;0.68;;;;;;;;;;4972469;28;20057;-52
2024/01/06 01:28:26;;;;;;;4.35;0.57;;;;;;;;;;4989582;28;20049;-49
2024/01/06 01:30:55;;;;;;;3.78;0.50;;;;;;;;;;4982481;28;20046;-50
2024/01/06 01:33:24;;;;;;;5.75;0.50;;;;;;;;;;4902066;28;20416;-51
2024/01/06 01:35:52;;;;;;;2.97;0.37;;;;;;;;;;4896485;28;20180;-53
2024/01/06 01:38:19;;;;;;;5.57;0.55;;;;;;;;;;4984035;28;20046;-52
2024/01/06 01:40:47;;;;;;;5.63;0.90;;;;;;;;;;4977920;28;20095;-49
2024/01/06 01:43:18;;;;;;;7.05;0.50;;;;;;;;;;4983206;28;21619;-50
2024/01/06 01:45:49;;;;;;;5.47;0.95;;;;;;;;;;4978673;28;20496;-50
2024/01/06 01:48:18;;;;;;;5.10;0.57;;;;;;;;;;4980091;28;20424;-49
2024/01/06 01:50:46;;;;;;;3.92;0.45;;;;;;;;;;4988175;28;20042;-49
2024/01/06 01:53:14;;;;;;;3.78;0.77;;;;;;;;;;4978446;28;20042;-49
2024/01/06 01:55:43;;;;;;;5.90;0.50;;;;;;;;;;4983646;28;20053;-49
2024/01/06 01:58:13;;;;;;;7.03;1.10;;;;;;;;;;4986914;28;20540;-49
2024/01/06 02:00:41;;;;;;;3.07;0.53;;;;;;;;;;4972526;28;20041;-53
2024/01/06 02:03:10;;;;;;;4.60;0.43;;;;;;;;;;4986522;28;20493;-49
2024/01/06 02:05:39;;;;;;;5.03;0.40;;;;;;;;;;4983332;28;20048;-49
2024/01/06 02:08:07;;;;;;;10.13;0.60;;;;;;;;;;4991798;28;20050;-51
2024/01/06 02:10:35;;;;;;;3.80;0.50;;;;;;;;;;4968249;28;20060;-53
2024/01/06 02:13:08;;;;;;;4.10;0.40;;;;;;;;;;4990345;28;20045;-52
2024/01/06 02:15:36;;;;;;;5.72;0.40;;;;;;;;;;4963009;28;20051;-50
2024/01/06 02:18:04;;;;;;;7.82;0.65;;;;;;;;;;4986396;28;20045;-48
2024/01/06 02:20:32;;;;;;;4.30;0.50;;;;;;;;;;4985562;28;20046;-49
2024/01/06 02:23:02;;;;;;;7.65;0.45;;;;;;;;;;4985439;28;20045;-51
2024/01/06 02:25:30;;;;;;;5.37;0.50;;;;;;;;;;4985803;28;20038;-52
2024/01/06 02:27:57;;;;;;;3.53;0.40;;;;;;;;;;4994383;28;20045;-48
2024/01/06 02:30:25;;;;;;;3.03;0.60;;;;;;;;;;4982166;28;20128;-53
2024/01/06 02:32:53;;;;;;;2.83;0.38;;;;;;;;;;4913403;28;20131;-49
2024/01/06 02:35:21;;;;;;;5.28;0.57;;;;;;;;;;4904015;28;20046;-48
2024/01/06 02:37:49;;;;;;;4.63;0.57;;;;;;;;;;4980712;28;20488;-48
2024/01/06 02:40:18;;;;;;;5.25;0.52;;;;;;;;;;4990751;28;20547;-48
2024/01/06 02:42:46;;;;;;;7.20;1.20;;;;;;;;;;4988928;28;20053;-51
2024/01/06 02:45:14;;;;;;;9.75;1.02;;;;;;;;;;4982244;28;20060;-48
2024/01/06 02:47:42;;;;;;;5.80;0.55;;;;;;;;;;4987385;28;20100;-49
2024/01/06 02:50:10;;;;;;;6.43;0.50;;;;;;;;;;4985017;28;20158;-52
2024/01/06 02:52:39;;;;;;;3.17;0.50;;;;;;;;;;4997637;28;20048;-49
2024/01/06 02:55:07;;;;;;;9.73;0.55;;;;;;;;;;4990014;28;20053;-48
2024/01/06 02:57:37;;;;;;;4.80;0.73;;;;;;;;;;4972645;28;20044;-48
2024/01/06 03:00:05;;;;;;;4.90;0.50;;;;;;;;;;4990134;28;20077;-51
2024/01/06 03:02:33;;;;;;;4.43;0.57;;;;;;;;;;4996500;28;20050;-49
2024/01/06 03:05:00;;;;;;;6.93;0.50;;;;;;;;;;4979241;28;20042;-49
2024/01/06 03:07:28;;;;;;;5.25;0.60;;;;;;;;;;4992142;28;20526;-48
2024/01/06 03:09:58;;;;;;;5.32;1.13;;;;;;;;;;4995687;28;20038;-48
2024/01/06 03:12:25;;;;;;;5.15;0.45;;;;;;;;;;4989699;28;20140;-49
2024/01/06 03:14:55;;;;;;;5.23;0.70;;;;;;;;;;4989449;28;20042;-52
2024/01/06 03:17:22;;;;;;;8.05;0.80;;;;;;;;;;4991846;28;20046;-50
2024/01/06 03:19:50;;;;;;;7.05;0.65;;;;;;;;;;4991464;28;20037;-49
2024/01/06 03:22:19;;;;;;;5.03;0.75;;;;;;;;;;4991287;28;20042;-52
2024/01/06 03:24:47;;;;;;;5.55;0.65;;;;;;;;;;4989806;28;20033;-54
2024/01/06 03:27:14;;;;;;;5.33;0.53;;;;;;;;;;4991195;28;20046;-53
2024/01/06 03:29:42;;;;;;;7.82;0.80;;;;;;;;;;4991641;28;20041;-53
2024/01/06 03:32:16;;;;;;;5.93;0.70;;;;;;;;;;4992012;28;20050;-52
2024/01/06 03:34:50;;;;;;;6.68;0.68;;;;;;;;;;4902890;28;20045;-51
2024/01/06 03:37:18;;;;;;;6.00;0.50;;;;;;;;;;4992557;28;20124;-53
2024/01/06 03:39:46;;;;;;;6.27;0.43;;;;;;;;;;4986227;28;20042;-50
2024/01/06 03:42:14;;;;;;;6.57;0.70;;;;;;;;;;4986052;28;20524;-50
2024/01/06 03:44:42;;;;;;;6.28;1.08;;;;;;;;;;4984739;28;20064;-53
2024/01/06 03:47:11;;;;;;;6.45;1.13;;;;;;;;;;4990177;28;20044;-50
2024/01/06 03:49:39;;;;;;;9.90;0.98;;;;;;;;;;4987620;28;20436;-48
2024/01/06 03:52:07;;;;;;;6.27;0.63;;;;;;;;;;4992584;28;20048;-47
2024/01/06 03:54:35;;;;;;;6.18;0.95;;;;;;;;;;4977406;28;20048;-51
2024/01/06 03:57:03;;;;;;;4.30;0.57;;;;;;;;;;4992274;28;20092;-48
2024/01/06 03:59:30;;;;;;;7.70;0.77;;;;;;;;;;4987005;28;20066;-50
2024/01/06 04:01:58;;;;;;;6.40;0.77;;;;;;;;;;4990315;28;20046;-49
2024/01/06 04:04:27;;;;;;;4.50;0.57;;;;;;;;;;4983131;28;20044;-51
2024/01/06 04:06:55;;;;;;;5.38;0.55;;;;;;;;;;4994087;28;20050;-48
2024/01/06 04:09:22;;;;;;;8.23;1.20;;;;;;;;;;4959264;28;21231;-47
2024/01/06 04:11:50;;;;;;;6.05;0.73;;;;;;;;;;4992590;28;20048;-50
2024/01/06 04:14:18;;;;;;;5.20;0.70;;;;;;;;;;4961727;28;20488;-49
2024/01/06 04:16:45;;;;;;;7.17;0.60;;;;;;;;;;4992670;28;20046;-49
2024/01/06 04:19:14;;;;;;;7.32;0.52;;;;;;;;;;4992496;28;20049;-50
2024/01/06 04:21:44;;;;;;;6.97;0.55;;;;;;;;;;4984512;28;20096;-49
2024/01/06 04:24:12;;;;;;;8.20;0.68;;;;;;;;;;4984061;28;20391;-47
2024/01/06 04:26:40;;;;;;;7.38;0.60;;;;;;;;;;4995409;28;20052;-48
2024/01/06 04:29:08;;;;;;;6.63;0.47;;;;;;;;;;4979869;28;20045;-51
2024/01/06 04:31:36;;;;;;;9.85;0.75;;;;;;;;;;4990512;28;20038;-49
2024/01/06 04:34:03;;;;;;;4.18;0.47;;;;;;;;;;4824791;28;22741;-51
2024/01/06 04:36:31;;;;;;;5.43;0.90;;;;;;;;;;4987325;28;20092;-51
2024/01/06 04:39:00;;;;;;;5.50;0.55;;;;;;;;;;4984755;28;21496;-48
2024/01/06 04:41:28;;;;;;;4.37;0.60;;;;;;;;;;4990207;28;20046;-48
2024/01/06 04:43:56;;;;;;;5.75;0.40;;;;;;;;;;4991773;28;20058;-47
2024/01/06 04:46:24;;;;;;;11.15;1.30;;;;;;;;;;4987030;28;20041;-47
2024/01/06 04:48:52;;;;;;;8.88;0.80;;;;;;;;;;4991293;28;20049;-53
2024/01/06 04:51:20;;;;;;;7.72;1.25;;;;;;;;;;4984392;28;20046;-50
2024/01/06 04:53:48;;;;;;;10.93;0.57;;;;;;;;;;4991093;28;20042;-50
2024/01/06 04:56:17;;;;;;;11.13;1.00;;;;;;;;;;4990783;28;20049;-48
2024/01/06 04:58:44;;;;;;;9.20;0.93;;;;;;;;;;4997241;28;20139;-47
2024/01/06 05:01:12;;;;;;;5.38;0.68;;;;;;;;;;4986816;28;20328;-48
2024/01/06 05:03:41;;;;;;;4.97;0.60;;;;;;;;;;4989080;28;20140;-50
2024/01/06 05:06:09;;;;;;;6.20;0.60;;;;;;;;;;4988462;28;20046;-49
2024/01/06 05:08:41;;;;;;;8.55;0.85;;;;;;;;;;5007237;28;20038;-47
2024/01/06 05:11:09;;;;;;;7.70;1.20;;;;;;;;;;4985015;28;20049;-49
2024/01/06 05:13:39;;;;;;;5.18;0.73;;;;;;;;;;4994472;28;20077;-49
2024/01/06 05:16:08;;;;;;;5.13;0.70;;;;;;;;;;4992227;28;20048;-51
2024/01/06 05:18:35;;;;;;;10.73;1.30;;;;;;;;;;4986060;28;20045;-50
2024/01/06 05:21:04;;;;;;;7.68;1.05;;;;;;;;;;4993608;28;20042;-52
2024/01/06 05:23:31;;;;;;;9.70;1.10;;;;;;;;;;4986414;28;20045;-48
2024/01/06 05:25:59;;;;;;;6.80;1.00;;;;;;;;;;5005657;28;20536;-51
2024/01/06 05:28:27;;;;;;;9.77;1.23;;;;;;;;;;4984708;28;20042;-48
2024/01/06 05:30:56;;;;;;;9.60;0.97;;;;;;;;;;5002453;28;20045;-47
2024/01/06 05:33:24;;;;;;;9.45;1.48;;;;;;;;;;4906448;28;20050;-49
2024/01/06 05:35:52;;;;;;;10.38;1.70;;;;;;;;;;4909205;28;20230;-50
2024/01/06 05:38:20;;;;;;;9.13;1.42;;;;;;;;;;4984699;28;20402;-48
2024/01/06 05:40:48;;;;;;;11.95;1.75;;;;;;;;;;4987606;28;20060;-47
2024/01/06 05:43:15;;;;;;;8.90;0.97;;;;;;;;;;4981057;28;20042;-48
2024/01/06 05:45:43;;;;;;;10.65;1.13;;;;;;;;;;4989844;28;20092;-47
2024/01/06 05:48:12;;;;;;;11.77;1.90;;;;;;;;;;4981429;28;20052;-47
2024/01/06 05:50:41;;;;;;;13.07;1.23;;;;;;;;;;4981223;28;20555;-52
2024/01/06 05:53:09;;;;;;;12.23;1.40;;;;;;;;;;4977854;28;20038;-50
2024/01/06 05:55:36;;;;;;;9.20;1.40;;;;;;;;;;4972540;28;20046;-50
2024/01/06 05:58:05;;;;;;;10.93;1.13;;;;;;;;;;4982983;28;20041;-51
2024/01/06 06:00:34;;;;;;;7.35;1.15;;;;;;;;;;4980263;28;20065;-49
2024/01/06 06:03:02;;;;;;;11.57;1.40;;;;;;;;;;4987432;28;20100;-48
2024/01/06 06:05:31;;;;;;;7.60;0.80;;;;;;;;;;4979692;28;20041;-49
2024/01/06 06:07:58;;;;;;;9.10;1.27;;;;;;;;;;4980993;28;20070;-49
2024/01/06 06:10:40;;;;;;;6.93;0.93;;;;;;;;;;4991422;28;20061;-48
2024/01/06 06:13:10;;;;;;;11.05;0.80;;;;;;;;;;4992835;28;20129;-48
2024/01/06 06:15:38;;;;;;;15.88;1.25;;;;;;;;;;4977712;28;20049;-49
2024/01/06 06:18:06;;;;;;;6.18;1.17;;;;;;;;;;4993799;28;20050;-50
2024/01/06 06:20:35;;;;;;;9.37;1.40;;;;;;;;;;4979340;28;20038;-46
2024/01/06 06:23:03;;;;;;;11.35;1.63;;;;;;;;;;4981526;28;20042;-48
2024/01/06 06:25:31;;;;;;;10.60;1.42;;;;;;;;;;4975238;28;21121;-53
2024/01/06 06:27:59;;;;;;;8.20;1.58;;;;;;;;;;4989019;28;20045;-48
2024/01/06 06:30:26;;;;;;;7.20;1.65;;;;;;;;;;4981901;28;20660;-47
2024/01/06 06:32:54;;;;;;;7.90;1.53;;;;;;;;;;4934016;28;20048;-51
2024/01/06 06:35:23;;;;;;;11.07;1.80;;;;;;;;;;4896363;28;20061;-50
2024/01/06 06:37:52;;;;;;;10.13;1.65;;;;;;;;;;4986186;28;20520;-49
2024/01/06 06:40:19;;;;;;;11.95;1.90;;;;;;;;;;4980893;28;20046;-47
2024/01/06 06:42:48;;;;;;;8.48;1.90;;;;;;;;;;4982744;28;20050;-53
2024/01/06 06:45:16;;;;;;;8.73;1.30;;;;;;;;;;4984382;28;20062;-47
2024/01/06 06:47:44;;;;;;;9.82;1.95;;;;;;;;;;4981546;28;20042;-50
2024/01/06 06:50:12;;;;;;;9.88;1.73;;;;;;;;;;4987629;28;20069;-49
2024/01/06 06:52:40;;;;;;;6.90;1.20;;;;;;;;;;4977977;28;20418;-51
2024/01/06 06:55:09;;;;;;;10.85;1.60;;;;;;;;;;4974783;28;20046;-47
2024/01/06 06:57:37;;;;;;;7.90;1.27;;;;;;;;;;4986762;28;20045;-51
2024/01/06 07:00:07;;;;;;;8.73;1.30;;;;;;;;;;4990918;28;20145;-47
2024/01/06 07:02:34;;;;;;;9.52;1.70;;;;;;;;;;4970999;28;20042;-50
2024/01/06 07:05:02;;;;;;;11.55;1.40;;;;;;;;;;4981946;28;20050;-49
2024/01/06 07:07:30;;;;;;;8.43;1.40;;;;;;;;;;4983351;28;20045;-48
2024/01/06 07:09:58;;;;;;;8.97;1.73;;;;;;;;;;4989446;28;20562;-50
2024/01/06 07:12:27;;;;;;;13.00;1.58;;;;;;;;;;4977843;28;20673;-51
2024/01/06 07:14:55;;;;;;;13.57;2.13;;;;;;;;;;4984872;28;20065;-52
2024/01/06 07:17:23;;;;;;;12.30;1.40;;;;;;;;;;4971667;28;20038;-50
2024/01/06 07:19:51;;;;;;;7.20;1.35;;;;;;;;;;4987625;28;20054;-48
2024/01/06 07:22:19;;;;;;;10.33;1.30;;;;;;;;;;4972617;28;20050;-50
2024/01/06 07:24:46;;;;;;;7.90;1.33;;;;;;;;;;4983898;28;20042;-49
2024/01/06 07:27:14;;;;;;;5.60;1.05;;;;;;;;;;4977372;28;20056;-46
2024/01/06 07:29:44;;;;;;;7.38;1.30;;;;;;;;;;4990793;28;20046;-53
2024/01/06 07:32:15;;;;;;;7.70;1.10;;;;;;;;;;4984790;28;20065;-48
2024/01/06 07:34:47;;;;;;;10.40;1.67;;;;;;;;;;4902009;28;20096;-50
2024/01/06 07:37:16;;;;;;;11.45;1.70;;;;;;;;;;4987036;28;20496;-51
2024/01/06 07:39:44;;;;;;;9.60;2.33;;;;;;;;;;4982744;28;20049;-51
2024/01/06 07:42:12;;;;;;;5.00;1.15;;;;;;;;;;4974136;28;20081;-50
2024/01/06 07:44:40;;;;;;;9.93;2.28;;;;;;;;;;4971466;28;20038;-50
2024/01/06 07:47:09;;;;;;;7.20;1.77;;;;;;;;;;4981829;28;20535;-50
2024/01/06 07:49:37;;;;;;;10.02;1.83;;;;;;;;;;4976355;28;20382;-53
2024/01/06 07:52:05;;;;;;;10.90;1.48;;;;;;;;;;4989904;28;20048;-50
2024/01/06 07:54:36;;;;;;;13.02;2.97;;;;;;;;;;4978091;28;20050;-48
2024/01/06 07:57:04;;;;;;;14.63;2.85;;;;;;;;;;4983491;28;20042;-50
2024/01/06 07:59:32;;;;;;;9.93;2.53;;;;;;;;;;4977704;28;20056;-54
2024/01/06 08:02:00;;;;;;;9.10;2.80;;;;;;;;;;4974802;28;20042;-50
2024/01/06 08:04:29;;;;;;;14.52;3.30;;;;;;;;;;4973811;28;20050;-49
2024/01/06 08:06:57;;;;;;;12.90;3.40;;;;;;;;;;4985673;28;20041;-51
2024/01/06 08:09:25;;;;;;;12.35;3.17;;;;;;;;;;4980213;28;20042;-50
2024/01/06 08:11:54;;;;;;;16.80;3.70;;;;;;;;;;4980744;28;20045;-49
2024/01/06 08:14:21;;;;;;;12.38;4.13;;;;;;;;;;4984802;28;20042;-53
2024/01/06 08:16:49;;;;;;;16.15;3.53;;;;;;;;;;4984823;28;20033;-51
2024/01/06 08:19:22;;;;;;;18.27;4.20;;;;;;;;;;4992168;28;20121;-51
2024/01/06 08:21:51;;;;;;;14.52;3.90;;;;;;;;;;4977679;28;20038;-49
2024/01/06 08:24:19;;;;;;;13.87;3.97;;;;;;;;;;4977417;28;20049;-50
2024/01/06 08:26:48;;;;;;;14.68;3.72;;;;;;;;;;4983804;28;20041;-50
2024/01/06 08:29:16;;;;;;;12.20;3.55;;;;;;;;;;4977002;28;20038;-48
2024/01/06 08:31:44;;;;;;;14.63;4.38;;;;;;;;;;4979489;28;20038;-48
2024/01/06 08:34:12;;;;;;;10.60;4.10;;;;;;;;;;4819568;28;20041;-47
2024/01/06 08:36:39;;;;;;;14.57;3.47;;;;;;;;;;4978088;28;20045;-51
2024/01/06 08:39:09;;;;;;;12.18;3.58;;;;;;;;;;4988729;28;20046;-51
2024/01/06 08:41:37;;;;;;;15.73;4.13;;;;;;;;;;4979610;28;20216;-49
2024/01/06 08:44:05;;;;;;;12.85;3.78;;;;;;;;;;4990155;28;20042;-50
2024/01/06 08:46:33;;;;;;;14.23;3.97;;;;;;;;;;4978067;28;20447;-48
2024/01/06 08:49:01;;;;;;;12.73;3.70;;;;;;;;;;4990719;28;20038;-49
2024/01/06 08:51:30;;;;;;;19.20;4.00;;;;;;;;;;4967153;28;20042;-49
2024/01/06 08:53:58;;;;;;;22.27;4.53;;;;;;;;;;4991581;28;20034;-48
2024/01/06 08:56:28;;;;;;;15.38;3.92;;;;;;;;;;4979283;28;20069;-48
2024/01/06 08:58:56;;;;;;;14.70;3.72;;;;;;;;;;4983094;28;20500;-48
2024/01/06 09:01:25;;;;;;;16.33;4.00;;;;;;;;;;4979995;28;20566;-50
2024/01/06 09:03:53;;;;;;;10.82;3.70;;;;;;;;;;4983253;28;20066;-50
2024/01/06 09:06:21;;;;;;;14.60;3.35;;;;;;;;;;4987199;28;20174;-49
2024/01/06 09:08:49;;;;;;;10.93;2.90;;;;;;;;;;4978469;28;20041;-49
2024/01/06 09:11:16;;;;;;;11.02;3.10;;;;;;;;;;4987050;28;20042;-48
2024/01/06 09:13:45;;;;;;;17.57;4.10;;;;;;;;;;4974834;28;20045;-48
2024/01/06 09:16:14;;;;;;;14.52;3.38;;;;;;;;;;4987622;28;20602;-49
2024/01/06 09:18:41;;;;;;;10.60;2.53;;;;;;;;;;4977048;28;20782;-47
2024/01/06 09:21:09;;;;;;;14.27;2.17;;;;;;;;;;4990214;28;20172;-50
2024/01/06 09:23:37;;;;;;;12.52;3.00;;;;;;;;;;4972986;28;20038;-46
2024/01/06 09:26:05;;;;;;;12.17;2.97;;;;;;;;;;4987391;28;20038;-53
2024/01/06 09:28:33;;;;;;;12.85;2.45;;;;;;;;;;4981075;28;20108;-49
2024/01/06 09:31:02;;;;;;;11.45;2.13;;;;;;;;;;4994025;28;20105;-48
2024/01/06 09:33:30;;;;;;;13.15;1.73;;;;;;;;;;4897596;28;20034;-51
2024/01/06 09:35:58;;;;;;;11.63;2.05;;;;;;;;;;4910354;28;20888;-50
2024/01/06 09:38:25;;;;;;;13.60;2.13;;;;;;;;;;4981346;28;20839;-49
2024/01/06 09:40:54;;;;;;;9.02;2.00;;;;;;;;;;4994015;28;20412;-51
2024/01/06 09:43:21;;;;;;;15.48;2.20;;;;;;;;;;4979253;28;20030;-46
2024/01/06 09:45:53;;;;;;;11.95;1.80;;;;;;;;;;4992150;28;20046;-47
2024/01/06 09:48:23;;;;;;;12.02;1.80;;;;;;;;;;4975631;28;20500;-48
2024/01/06 09:50:55;;;;;;;11.97;2.03;;;;;;;;;;4993459;28;20042;-50
2024/01/06 09:53:24;;;;;;;10.65;1.42;;;;;;;;;;4987028;28;20419;-49
2024/01/06 09:55:52;;;;;;;12.05;1.92;;;;;;;;;;4984728;28;20038;-48
2024/01/06 09:58:19;;;;;;;11.05;1.70;;;;;;;;;;4986900;28;20136;-49
2024/01/06 10:00:49;;;;;;;13.15;1.83;;;;;;;;;;4985391;28;20038;-48
2024/01/06 10:03:16;;;;;;;14.00;1.97;;;;;;;;;;4984043;28;20038;-49
2024/01/06 10:05:46;;;;;;;13.00;2.08;;;;;;;;;;4977179;28;20753;-47
2024/01/06 10:08:13;;;;;;;13.65;2.63;;;;;;;;;;4995484;28;20049;-50
2024/01/06 10:10:41;;;;;;;10.52;2.75;;;;;;;;;;4981536;28;20038;-50
2024/01/06 10:13:09;;;;;;;11.80;1.92;;;;;;;;;;4986713;28;20046;-48
2024/01/06 10:15:37;;;;;;;10.63;2.33;;;;;;;;;;4984634;28;20053;-48
2024/01/06 10:18:05;;;;;;;17.30;2.38;;;;;;;;;;4990451;28;20535;-49
2024/01/06 10:20:33;;;;;;;11.27;2.22;;;;;;;;;;4980468;28;20314;-50
2024/01/06 10:23:06;;;;;;;16.13;2.63;;;;;;;;;;4980684;28;20033;-48
2024/01/06 10:25:34;;;;;;;16.20;2.17;;;;;;;;;;4980510;28;20045;-48
2024/01/06 10:28:03;;;;;;;12.33;2.40;;;;;;;;;;4990289;28;20042;-47
2024/01/06 10:30:30;;;;;;;12.32;2.40;;;;;;;;;;4988312;28;20038;-50
2024/01/06 10:32:58;;;;;;;12.02;2.33;;;;;;;;;;4907920;28;20038;-47
2024/01/06 10:35:26;;;;;;;10.57;1.83;;;;;;;;;;4887224;28;20045;-49
2024/01/06 10:37:55;;;;;;;10.70;2.30;;;;;;;;;;4990463;28;20057;-48
2024/01/06 10:40:24;;;;;;;12.13;2.20;;;;;;;;;;4983548;28;20050;-48
2024/01/06 10:42:52;;;;;;;14.63;2.05;;;;;;;;;;4988727;28;20046;-51
2024/01/06 10:45:20;;;;;;;8.00;1.40;;;;;;;;;;4986981;28;20438;-47
2024/01/06 10:47:48;;;;;;;13.55;1.70;;;;;;;;;;4987296;28;20908;-48
2024/01/06 10:50:18;;;;;;;8.20;1.75;;;;;;;;;;4995555;28;20053;-47
2024/01/06 10:52:47;;;;;;;6.13;1.33;;;;;;;;;;4982600;28;20455;-47
2024/01/06 10:55:17;;;;;;;11.90;1.60;;;;;;;;;;4992552;28;20053;-49
2024/01/06 10:57:46;;;;;;;10.95;1.48;;;;;;;;;;4981138;28;20056;-51
2024/01/06 11:00:15;;;;;;;14.15;1.63;;;;;;;;;;4993810;28;20058;-50
2024/01/06 11:02:43;;;;;;;8.93;2.00;;;;;;;;;;4976687;28;20096;-47
2024/01/06 11:05:13;;;;;;;9.17;1.57;;;;;;;;;;4985343;28;20046;-49
2024/01/06 11:07:41;;;;;;;10.15;1.70;;;;;;;;;;4979784;28;20069;-50
2024/01/06 11:10:15;;;;;;;6.97;1.30;;;;;;;;;;4978903;28;20665;-51
2024/01/06 11:12:43;;;;;;;8.75;1.60;;;;;;;;;;4984999;28;20542;-47
2024/01/06 11:15:32;;;;;;;16.83;1.88;;;;;;;;;;4995023;28;20532;-48
2024/01/06 11:18:00;;;;;;;6.47;1.27;;;;;;;;;;4987173;28;20060;-50
2024/01/06 11:20:28;;;;;;;8.60;1.77;;;;;;;;;;4986153;28;20136;-50
2024/01/06 11:22:56;;;;;;;10.02;2.58;;;;;;;;;;4984083;28;20045;-46
2024/01/06 11:25:27;;;;;;;10.40;2.42;;;;;;;;;;4981363;28;20378;-47
2024/01/06 11:27:57;;;;;;;12.57;1.85;;;;;;;;;;4992160;28;20049;-47
2024/01/06 11:30:28;;;;;;;10.80;2.20;;;;;;;;;;4979417;28;20119;-50
2024/01/06 11:32:58;;;;;;;15.60;2.15;;;;;;;;;;4906752;28;20034;-49
2024/01/06 11:35:27;;;;;;;12.13;2.20;;;;;;;;;;4893000;28;20077;-48
2024/01/06 11:37:56;;;;;;;10.13;1.70;;;;;;;;;;4983487;28;20045;-50
2024/01/06 11:40:33;;;;;;;10.15;1.90;;;;;;;;;;4987407;28;20053;-48
2024/01/06 11:43:03;;;;;;;13.03;2.30;;;;;;;;;;4982336;28;20069;-47
2024/01/06 11:45:32;;;;;;;9.20;1.40;;;;;;;;;;4986792;28;20042;-54
2024/01/06 11:48:02;;;;;;;8.40;1.50;;;;;;;;;;4995860;28;20496;-50
2024/01/06 11:50:30;;;;;;;8.13;1.65;;;;;;;;;;4993853;28;20052;-52
2024/01/06 11:52:59;;;;;;;10.23;2.00;;;;;;;;;;4980907;28;20038;-49
2024/01/06 11:55:29;;;;;;;10.33;1.63;;;;;;;;;;4992007;28;20046;-50
2024/01/06 11:57:57;;;;;;;8.38;1.60;;;;;;;;;;4983704;28;20037;-51
2024/01/06 12:00:25;;;;;;;8.60;1.50;;;;;;;;;;4987020;28;20087;-50
2024/01/06 12:03:00;;;;;;;7.20;1.42;;;;;;;;;;4986965;28;20137;-50
2024/01/06 12:05:28;;;;;;;6.45;1.27;;;;;;;;;;4989656;28;20052;-52
2024/01/06 12:07:57;;;;;;;7.27;1.60;;;;;;;;;;4982915;28;20045;-49
2024/01/06 12:10:25;;;;;;;8.60;1.17;;;;;;;;;;4990163;28;20037;-50
2024/01/06 12:12:59;;;;;;;9.75;1.50;;;;;;;;;;4986454;28;20456;-48
2024/01/06 12:15:28;;;;;;;8.93;1.73;;;;;;;;;;4989100;28;20107;-50
2024/01/06 12:17:56;;;;;;;8.73;1.23;;;;;;;;;;4985938;28;20136;-48
2024/01/06 12:20:25;;;;;;;8.00;1.07;;;;;;;;;;4983675;28;20635;-50
2024/01/06 12:22:53;;;;;;;8.25;1.40;;;;;;;;;;4979135;28;20109;-52
2024/01/06 12:25:21;;;;;;;9.05;1.35;;;;;;;;;;4984815;28;20073;-51
2024/01/06 12:27:49;;;;;;;5.40;0.90;;;;;;;;;;4987805;28;20049;-52
2024/01/06 12:30:19;;;;;;;10.00;1.90;;;;;;;;;;4981443;28;20038;-49
2024/01/06 12:32:48;;;;;;;6.77;1.20;;;;;;;;;;4908052;28;20084;-52
2024/01/06 12:35:17;;;;;;;7.70;1.65;;;;;;;;;;4904671;28;20555;-52
2024/01/06 12:37:46;;;;;;;10.18;1.85;;;;;;;;;;4988816;28;20245;-50
2024/01/06 12:40:16;;;;;;;9.02;1.25;;;;;;;;;;4967039;28;20089;-49
2024/01/06 12:42:44;;;;;;;7.47;1.75;;;;;;;;;;4987192;28;20046;-50
2024/01/06 12:45:12;;;;;;;8.73;1.47;;;;;;;;;;4981169;28;20045;-50
2024/01/06 12:47:43;;;;;;;5.22;1.20;;;;;;;;;;4987361;28;20255;-49
2024/01/06 12:50:11;;;;;;;7.90;1.50;;;;;;;;;;4992406;28;20063;-48
2024/01/06 12:52:39;;;;;;;8.13;1.70;;;;;;;;;;4981620;28;20042;-49
2024/01/06 12:55:09;;;;;;;8.48;1.48;;;;;;;;;;4986755;28;20042;-47
2024/01/06 12:57:37;;;;;;;8.37;1.47;;;;;;;;;;4981783;28;20085;-47
2024/01/06 13:00:07;;;;;;;8.65;1.50;;;;;;;;;;4991862;28;20069;-47
2024/01/06 13:02:35;;;;;;;10.60;1.88;;;;;;;;;;4966153;28;20137;-47
2024/01/06 13:05:03;;;;;;;9.45;1.75;;;;;;;;;;4996092;28;20056;-48
2024/01/06 13:07:31;;;;;;;7.75;1.77;;;;;;;;;;4984749;28;20712;-48
2024/01/06 13:09:59;;;;;;;9.70;1.77;;;;;;;;;;4996404;28;20579;-49
2024/01/06 13:12:29;;;;;;;8.07;2.10;;;;;;;;;;4985929;28;20041;-48
2024/01/06 13:14:57;;;;;;;10.27;2.33;;;;;;;;;;4980072;28;20048;-51
2024/01/06 13:17:25;;;;;;;7.45;2.38;;;;;;;;;;4988070;28;20518;-48
2024/01/06 13:19:52;;;;;;;8.85;2.13;;;;;;;;;;4991596;28;20096;-47
2024/01/06 13:22:22;;;;;;;11.37;2.03;;;;;;;;;;4983235;28;20208;-48
2024/01/06 13:24:49;;;;;;;12.25;2.03;;;;;;;;;;4986588;28;20588;-48
2024/01/06 13:27:20;;;;;;;9.93;1.95;;;;;;;;;;4968103;28;20050;-47
2024/01/06 13:29:50;;;;;;;7.00;1.83;;;;;;;;;;4990781;28;20789;-47
2024/01/06 13:32:19;;;;;;;8.65;1.80;;;;;;;;;;4911073;28;20100;-51
2024/01/06 13:34:47;;;;;;;6.70;1.40;;;;;;;;;;4897707;28;20046;-49
2024/01/06 13:37:15;;;;;;;6.60;1.35;;;;;;;;;;4983545;28;20050;-49
2024/01/06 13:39:43;;;;;;;8.07;1.70;;;;;;;;;;4989712;28;20038;-48
2024/01/06 13:42:11;;;;;;;7.07;1.67;;;;;;;;;;4986660;28;20570;-49
2024/01/06 13:44:39;;;;;;;6.80;1.35;;;;;;;;;;4984911;28;20346;-50
2024/01/06 13:47:08;;;;;;;11.83;1.90;;;;;;;;;;4991258;28;20046;-49
2024/01/06 13:49:36;;;;;;;8.07;1.80;;;;;;;;;;4989373;28;20385;-50
2024/01/06 13:52:04;;;;;;;9.23;2.55;;;;;;;;;;4990577;28;20073;-49
2024/01/06 13:54:31;;;;;;;6.47;1.70;;;;;;;;;;4982537;28;20049;-47
2024/01/06 13:56:59;;;;;;;8.77;2.35;;;;;;;;;;4988136;28;20045;-48
2024/01/06 13:59:27;;;;;;;6.50;1.60;;;;;;;;;;4989180;28;20057;-48
2024/01/06 14:01:55;;;;;;;6.72;1.27;;;;;;;;;;4985913;28;20037;-45
2024/01/06 14:04:24;;;;;;;7.22;1.00;;;;;;;;;;4983339;28;20034;-48
2024/01/06 14:06:55;;;;;;;5.13;0.93;;;;;;;;;;4992952;28;20141;-47
2024/01/06 14:09:23;;;;;;;4.68;0.60;;;;;;;;;;4987048;28;20053;-50
2024/01/06 14:11:52;;;;;;;4.73;1.00;;;;;;;;;;4988687;28;20493;-49
2024/01/06 14:14:21;;;;;;;7.38;1.00;;;;;;;;;;4987619;28;20416;-48
2024/01/06 14:16:50;;;;;;;7.53;1.48;;;;;;;;;;4992169;28;20447;-48
2024/01/06 14:19:18;;;;;;;5.43;1.08;;;;;;;;;;4990762;28;20073;-48
2024/01/06 14:21:48;;;;;;;6.60;1.30;;;;;;;;;;4981845;28;20038;-49
2024/01/06 14:24:18;;;;;;;4.90;1.30;;;;;;;;;;4990965;28;20128;-47
2024/01/06 14:26:47;;;;;;;5.90;1.15;;;;;;;;;;4988157;28;20477;-50
2024/01/06 14:29:16;;;;;;;8.77;1.40;;;;;;;;;;4990823;28;20054;-46
2024/01/06 14:31:44;;;;;;;5.80;1.30;;;;;;;;;;4982755;28;20053;-49
2024/01/06 14:34:12;;;;;;;6.60;1.20;;;;;;;;;;4817836;28;20065;-52
2024/01/06 14:36:47;;;;;;;6.93;1.43;;;;;;;;;;4980263;28;20104;-47
2024/01/06 14:39:16;;;;;;;7.65;1.00;;;;;;;;;;4984760;28;20281;-48
2024/01/06 14:41:47;;;;;;;6.45;1.10;;;;;;;;;;4976847;28;20040;-49
2024/01/06 14:44:14;;;;;;;4.10;0.95;;;;;;;;;;4987534;28;20045;-48
2024/01/06 14:46:42;;;;;;;5.70;0.90;;;;;;;;;;4984242;28;20053;-49